Time;durP1;ratioP1;P1;durP2;ratioP2;P2;SDS_P1;SDS_P2;PMS_P1;PMS_P2;Temp;Humidity;BMP_temperature;BMP_pressure;BME280_temperature;BME280_humidity;BME280_pressure;Samples;Min_cycle;Max_cycle;Signal;HPM_P1;HPM_P2
2022/08/31 00:04:33;;;;;;;1.17;0.80;;;;;;;22.14;46.90;102368.44;4857768;29;20098;-77
2022/08/31 00:06:58;;;;;;;1.60;0.77;;;;;;;22.13;46.74;102371.97;4849863;29;20045;-77
2022/08/31 00:09:24;;;;;;;2.00;1.15;;;;;;;22.08;46.86;102371.09;4852190;29;20040;-77
2022/08/31 00:11:49;;;;;;;1.80;0.90;;;;;;;22.12;46.58;102373.72;4849571;29;20064;-77
2022/08/31 00:14:15;;;;;;;1.73;0.93;;;;;;;22.11;46.70;102369.34;4851512;29;20113;-77
2022/08/31 00:16:41;;;;;;;1.38;0.98;;;;;;;22.13;46.88;102374.59;4870426;29;20144;-77
2022/08/31 00:19:06;;;;;;;2.35;1.13;;;;;;;22.14;46.74;102371.94;4865250;29;20056;-77
2022/08/31 00:21:32;;;;;;;2.47;0.90;;;;;;;22.14;46.92;102373.69;4828481;29;20060;-77
2022/08/31 00:23:58;;;;;;;1.95;0.98;;;;;;;22.16;46.88;102374.56;4838497;29;20105;-77
2022/08/31 00:26:24;;;;;;;0.90;0.80;;;;;;;22.14;47.00;102368.44;4840367;29;20503;-77
2022/08/31 00:28:50;;;;;;;1.50;0.85;;;;;;;22.13;47.07;102379.81;4862796;29;20053;-77
2022/08/31 00:31:16;;;;;;;1.45;0.70;;;;;;;22.14;47.08;102377.19;4863074;29;20084;-77
2022/08/31 00:33:41;;;;;;;2.63;1.15;;;;;;;22.12;46.93;102375.44;4839780;29;20054;-77
2022/08/31 00:36:10;;;;;;;1.10;0.90;;;;;;;22.12;46.86;102373.72;4853991;29;20136;-77
2022/08/31 00:38:36;;;;;;;1.70;0.90;;;;;;;22.13;46.73;102370.19;4863113;29;20503;-77
2022/08/31 00:41:03;;;;;;;1.80;1.20;;;;;;;22.14;46.73;102379.78;4861412;29;20069;-77
2022/08/31 00:43:40;;;;;;;1.45;0.90;;;;;;;22.14;46.75;102373.69;4844608;29;20049;-77
2022/08/31 00:46:09;;;;;;;2.22;0.98;;;;;;;22.14;47.06;102377.19;4869902;29;21157;-78
2022/08/31 00:48:39;;;;;;;2.53;0.88;;;;;;;22.16;46.87;102372.81;4873402;29;20068;-78
2022/08/31 00:51:05;;;;;;;1.88;0.80;;;;;;;22.16;46.91;102369.31;4870631;29;20057;-77
2022/08/31 00:53:30;;;;;;;2.67;1.10;;;;;;;22.16;46.69;102364.94;4849230;29;20046;-77
2022/08/31 00:55:57;;;;;;;1.75;0.90;;;;;;;22.16;46.86;102369.31;4869405;29;20046;-77
2022/08/31 00:58:23;;;;;;;1.13;0.77;;;;;;;22.16;46.60;102369.31;4848073;29;20060;-77
2022/08/31 01:00:48;;;;;;;1.20;0.80;;;;;;;22.15;46.66;102371.06;4861463;29;20064;-78
2022/08/31 01:03:14;;;;;;;3.05;0.85;;;;;;;22.15;46.86;102370.22;4847047;29;20045;-77
2022/08/31 01:08:06;;;;;;;1.73;0.80;;;;;;;22.14;46.83;102382.41;4863828;29;20054;-77
2022/08/31 01:13:06;;;;;;;1.35;0.95;;;;;;;22.15;46.83;102373.69;4864473;29;20826;-77
2022/08/31 01:15:31;;;;;;;0.88;0.65;;;;;;;22.12;46.85;102375.44;4837804;29;20049;-77
2022/08/31 01:18:03;;;;;;;2.15;0.90;;;;;;;22.14;46.90;102382.41;4859294;29;20042;-77
2022/08/31 01:23:06;;;;;;;1.20;0.70;;;;;;;22.13;47.06;102375.44;4859503;29;20791;-77
2022/08/31 01:25:34;;;;;;;2.25;0.80;;;;;;;22.13;46.76;102377.22;4863646;29;20105;-77
2022/08/31 01:28:03;;;;;;;1.45;0.85;;;;;;;22.12;46.75;102380.69;4866438;29;20053;-77
2022/08/31 01:30:28;;;;;;;2.28;1.00;;;;;;;22.13;46.77;102378.06;4867945;29;20061;-77
2022/08/31 01:32:54;;;;;;;1.35;0.73;;;;;;;22.13;46.62;102377.22;4875717;29;20060;-77
2022/08/31 01:35:19;;;;;;;2.70;0.90;;;;;;;22.11;47.00;102384.22;4854618;29;20053;-77
2022/08/31 01:37:45;;;;;;;1.33;0.80;;;;;;;22.12;46.70;102378.06;4845011;29;20148;-78
2022/08/31 01:40:11;;;;;;;0.95;0.73;;;;;;;22.11;46.87;102384.22;4869389;29;20087;-77
2022/08/31 01:42:36;;;;;;;1.98;0.88;;;;;;;22.11;46.63;102381.59;4864138;29;20495;-78
2022/08/31 01:45:05;;;;;;;2.95;0.70;;;;;;;22.13;46.85;102387.69;4865377;29;20961;-77
2022/08/31 01:47:31;;;;;;;2.08;0.70;;;;;;;22.11;47.12;102387.69;4858126;29;20058;-77
2022/08/31 01:49:57;;;;;;;4.35;0.90;;;;;;;22.13;46.74;102388.56;4834418;29;20063;-77
2022/08/31 01:52:22;;;;;;;1.58;0.80;;;;;;;22.13;46.88;102388.56;4843141;29;20045;-77
2022/08/31 01:54:47;;;;;;;1.88;0.77;;;;;;;22.12;46.91;102384.22;4857824;29;20054;-78
2022/08/31 01:57:14;;;;;;;1.15;0.80;;;;;;;22.12;46.26;102394.69;4827865;29;20057;-77
2022/08/31 02:02:05;;;;;;;1.33;0.90;;;;;;;22.14;46.73;102381.56;4865462;29;20091;-78
2022/08/31 02:04:31;;;;;;;1.45;0.77;;;;;;;22.10;47.15;102383.34;4866422;29;20046;-78
2022/08/31 02:06:59;;;;;;;1.48;1.00;;;;;;;22.12;46.81;102392.06;4856646;29;20441;-78
2022/08/31 02:09:26;;;;;;;1.20;0.70;;;;;;;22.10;47.05;102377.19;4867062;29;20484;-78
2022/08/31 02:11:52;;;;;;;1.40;0.80;;;;;;;22.07;46.96;102380.72;4864014;29;20065;-78
2022/08/31 02:14:18;;;;;;;1.10;0.70;;;;;;;22.07;46.71;102378.09;4880674;29;20050;-77
2022/08/31 02:16:44;;;;;;;2.97;0.90;;;;;;;22.08;47.06;102376.34;4876365;29;20054;-77
2022/08/31 02:19:10;;;;;;;1.00;0.70;;;;;;;22.08;46.84;102379.84;4843377;29;20157;-77
2022/08/31 02:21:36;;;;;;;1.70;0.90;;;;;;;22.07;47.04;102378.09;4874193;29;20053;-78
2022/08/31 02:24:02;;;;;;;1.02;0.70;;;;;;;22.08;46.75;102378.94;4881250;29;20084;-77
2022/08/31 02:26:27;;;;;;;2.03;1.10;;;;;;;22.09;46.81;102380.72;4851425;29;20230;-77
2022/08/31 02:28:56;;;;;;;1.65;0.80;;;;;;;22.09;46.98;102378.97;4860168;29;20057;-78
2022/08/31 02:31:21;;;;;;;2.95;0.90;;;;;;;22.08;46.97;102376.34;4798289;29;1311761;-78
2022/08/31 02:33:46;;;;;;;2.42;0.80;;;;;;;22.08;47.18;102379.84;4844284;29;20546;-78
2022/08/31 02:36:12;;;;;;;1.92;1.10;;;;;;;22.09;46.88;102376.34;4829904;29;20049;-78
2022/08/31 02:38:38;;;;;;;2.13;0.90;;;;;;;22.10;46.75;102371.97;4869203;29;20076;-78
2022/08/31 02:41:04;;;;;;;2.10;0.80;;;;;;;22.09;46.84;102370.22;4865119;29;20061;-78
2022/08/31 02:43:31;;;;;;;1.90;0.80;;;;;;;22.09;46.81;102372.84;4852231;29;20056;-77
2022/08/31 02:45:57;;;;;;;1.75;0.73;;;;;;;22.10;46.86;102375.47;4841798;29;20098;-77
2022/08/31 02:48:22;;;;;;;1.20;0.70;;;;;;;22.10;46.73;102374.56;4842770;29;20125;-78
2022/08/31 02:50:50;;;;;;;1.42;0.93;;;;;;;22.08;46.72;102371.09;4864565;29;20060;-78
2022/08/31 02:53:18;;;;;;;2.90;0.98;;;;;;;22.09;46.57;102373.72;4865898;29;20121;-78
2022/08/31 02:55:44;;;;;;;1.88;0.80;;;;;;;22.07;46.81;102374.59;4864985;29;20053;-77
2022/08/31 02:58:13;;;;;;;0.90;0.70;;;;;;;22.09;46.70;102370.22;4855410;29;20544;-77
2022/08/31 03:00:41;;;;;;;1.02;0.63;;;;;;;22.08;46.54;102371.97;4842661;29;20077;-77
2022/08/31 03:03:06;;;;;;;1.30;0.80;;;;;;;22.09;46.65;102375.47;4857928;29;20088;-77
2022/08/31 03:05:32;;;;;;;2.70;0.68;;;;;;;22.09;46.77;102380.72;4867296;29;20073;-77
2022/08/31 03:07:57;;;;;;;1.63;0.90;;;;;;;22.07;46.71;102374.59;4818812;29;20064;-77
2022/08/31 03:10:24;;;;;;;2.55;0.90;;;;;;;22.07;46.77;102380.72;4835465;29;20481;-77
2022/08/31 03:12:51;;;;;;;1.30;0.68;;;;;;;22.10;46.73;102378.09;4833268;29;20061;-78
2022/08/31 03:15:19;;;;;;;0.88;0.68;;;;;;;22.09;46.72;102376.34;4859147;29;20057;-77
2022/08/31 03:17:45;;;;;;;2.08;0.70;;;;;;;22.07;46.67;102380.72;4857613;29;20468;-78
2022/08/31 03:20:11;;;;;;;1.77;0.93;;;;;;;22.04;46.94;102382.50;4833876;29;20056;-77
2022/08/31 03:22:37;;;;;;;3.58;0.80;;;;;;;22.04;46.89;102375.50;4857973;29;20045;-77
2022/08/31 03:25:04;;;;;;;1.00;0.70;;;;;;;22.07;46.55;102375.47;4840807;29;20187;-77
2022/08/31 03:27:30;;;;;;;3.20;0.77;;;;;;;22.05;46.79;102382.47;4859324;29;20491;-77
2022/08/31 03:29:56;;;;;;;1.17;0.85;;;;;;;22.03;46.87;102383.34;4838208;29;20059;-78
2022/08/31 03:32:21;;;;;;;0.95;0.70;;;;;;;22.05;47.09;102382.47;4864876;29;20053;-77
2022/08/31 03:34:47;;;;;;;1.65;0.80;;;;;;;22.04;46.71;102380.75;4856699;29;20053;-76
2022/08/31 03:37:13;;;;;;;1.85;1.00;;;;;;;22.03;46.53;102385.97;4865037;29;20077;-77
2022/08/31 03:39:38;;;;;;;0.90;0.60;;;;;;;22.04;46.99;102387.75;4866030;29;20078;-77
2022/08/31 03:42:07;;;;;;;3.00;0.90;;;;;;;22.06;46.58;102391.19;4841463;29;20407;-77
2022/08/31 03:44:33;;;;;;;1.80;0.80;;;;;;;22.03;46.66;102393.84;4846948;29;20056;-78
2022/08/31 03:46:59;;;;;;;3.15;0.95;;;;;;;22.01;46.84;102401.69;4866430;29;20049;-78
2022/08/31 03:49:24;;;;;;;1.52;0.80;;;;;;;22.01;47.00;102399.06;4846107;29;20068;-77
2022/08/31 03:51:51;;;;;;;1.45;0.70;;;;;;;22.01;46.93;102403.47;4826567;29;20049;-77
2022/08/31 03:54:17;;;;;;;1.80;0.73;;;;;;;22.00;46.76;102391.25;4868950;29;20507;-77
2022/08/31 03:56:43;;;;;;;4.70;0.90;;;;;;;22.01;46.75;102396.47;4867950;29;20097;-78
2022/08/31 03:59:09;;;;;;;1.85;0.90;;;;;;;22.01;46.78;102393.84;4843177;29;20075;-77
2022/08/31 04:01:35;;;;;;;5.88;0.90;;;;;;;21.99;46.88;102403.44;4844370;29;20077;-77
2022/08/31 04:04:01;;;;;;;5.07;1.17;;;;;;;22.00;46.71;102404.34;4844125;29;20053;-78
2022/08/31 04:06:27;;;;;;;1.60;0.80;;;;;;;21.99;46.80;102403.44;4862917;29;20090;-78
2022/08/31 04:08:54;;;;;;;2.25;0.80;;;;;;;21.99;47.01;102400.84;4879601;29;20042;-78
2022/08/31 04:11:20;;;;;;;0.80;0.63;;;;;;;21.99;46.69;102406.06;4843368;29;20065;-78
2022/08/31 04:13:46;;;;;;;1.25;0.90;;;;;;;21.96;46.86;102408.72;4836864;29;20053;-77
2022/08/31 04:16:15;;;;;;;1.67;0.90;;;;;;;21.98;46.61;102399.09;4855604;29;20060;-77
2022/08/31 04:18:43;;;;;;;1.65;0.70;;;;;;;21.97;46.28;102406.09;4868231;29;20121;-78
2022/08/31 04:21:19;;;;;;;2.17;1.00;;;;;;;21.98;47.00;102407.81;4867182;29;20057;-77
2022/08/31 04:23:46;;;;;;;1.70;0.70;;;;;;;22.02;46.42;102403.47;4869255;29;20105;-78
2022/08/31 04:26:23;;;;;;;1.15;0.80;;;;;;;22.02;46.42;102411.31;4846917;29;20144;-77
2022/08/31 04:28:49;;;;;;;3.03;0.80;;;;;;;22.04;46.32;102419.19;4861505;29;20057;-78
2022/08/31 04:31:15;;;;;;;1.25;0.80;;;;;;;22.04;46.40;102419.19;4872637;29;20050;-77
2022/08/31 04:36:08;;;;;;;2.45;0.75;;;;;;;21.96;46.57;102417.44;4871459;29;20054;-77
2022/08/31 04:38:33;;;;;;;1.55;0.80;;;;;;;21.97;46.56;102415.69;4847906;29;20150;-77
2022/08/31 04:41:08;;;;;;;2.80;0.75;;;;;;;21.94;46.65;102411.34;4868795;29;20049;-78
2022/08/31 04:43:35;;;;;;;2.53;0.80;;;;;;;21.91;46.90;102416.59;4874158;29;20053;-77
2022/08/31 04:46:02;;;;;;;1.98;0.90;;;;;;;21.95;46.67;102412.22;4849604;29;20522;-78
2022/08/31 04:48:28;;;;;;;1.63;0.80;;;;;;;21.95;46.42;102422.72;4853631;29;20056;-77
2022/08/31 04:51:04;;;;;;;1.52;0.70;;;;;;;21.96;46.51;102422.69;4889507;29;20053;-77
2022/08/31 04:53:29;;;;;;;2.05;0.60;;;;;;;21.94;46.22;102420.94;4874648;29;20056;-78
2022/08/31 04:55:55;;;;;;;1.15;0.80;;;;;;;21.92;46.58;102427.94;4863633;29;20058;-78
2022/08/31 04:58:22;;;;;;;1.17;0.70;;;;;;;21.91;46.29;102421.84;4865887;29;20403;-78
2022/08/31 05:00:49;;;;;;;1.50;0.90;;;;;;;21.91;46.37;102429.69;4841874;29;20054;-78
2022/08/31 05:03:15;;;;;;;0.95;0.70;;;;;;;21.94;46.44;102428.81;4865931;29;20045;-78
2022/08/31 05:08:05;;;;;;;1.65;0.80;;;;;;;21.90;46.25;102434.94;4866835;29;20057;-78
2022/08/31 05:10:31;;;;;;;1.25;0.70;;;;;;;21.92;46.38;102434.06;4844107;29;20059;-78
2022/08/31 05:12:57;;;;;;;4.43;1.38;;;;;;;22.06;45.99;102435.75;4844654;29;20053;-78
2022/08/31 05:15:22;;;;;;;5.07;2.10;;;;;;;22.12;46.03;102435.75;4872496;29;20045;-77
2022/08/31 05:17:48;;;;;;;13.48;4.20;;;;;;;22.16;45.96;102440.09;4869626;29;20482;-78
2022/08/31 05:20:13;;;;;;;15.02;5.38;;;;;;;22.18;46.12;102444.47;4871048;29;20064;-76
2022/08/31 05:22:39;;;;;;;10.52;4.20;;;;;;;22.21;46.00;102440.09;4871309;29;20057;-77
2022/08/31 05:25:05;;;;;;;10.10;3.90;;;;;;;22.21;46.06;102442.72;4853073;29;20050;-77
2022/08/31 05:27:32;;;;;;;11.70;4.20;;;;;;;22.22;46.05;102448.00;4824052;29;20045;-77
2022/08/31 05:29:57;;;;;;;9.50;3.85;;;;;;;22.22;45.85;102442.75;4866314;29;20053;-77
2022/08/31 05:32:23;;;;;;;10.57;3.70;;;;;;;22.23;45.90;102447.09;4846189;29;20060;-77
2022/08/31 05:34:48;;;;;;;13.07;3.78;;;;;;;22.23;46.11;102449.72;4852323;29;20050;-77
2022/08/31 05:37:14;;;;;;;9.95;3.20;;;;;;;22.22;45.58;102448.00;4846252;29;20053;-77
2022/08/31 05:39:39;;;;;;;9.45;3.35;;;;;;;22.23;45.85;102448.84;4867826;29;20057;-77
2022/08/31 05:42:06;;;;;;;12.77;3.45;;;;;;;22.22;45.81;102449.72;4834291;29;20084;-77
2022/08/31 05:44:35;;;;;;;8.38;3.03;;;;;;;22.21;45.48;102442.72;4850098;29;20500;-77
2022/08/31 05:47:04;;;;;;;5.93;2.65;;;;;;;22.23;45.29;102447.09;4849641;29;20077;-77
2022/08/31 05:49:30;;;;;;;7.65;2.63;;;;;;;22.26;45.22;102441.84;4845836;29;20140;-77
2022/08/31 05:51:59;;;;;;;5.38;2.20;;;;;;;22.36;44.43;102443.56;4880073;29;20132;-77
2022/08/31 05:54:24;;;;;;;5.75;2.22;;;;;;;22.62;43.92;102445.19;4826781;29;20049;-79
2022/08/31 05:56:50;;;;;;;5.65;1.70;;;;;;;23.01;42.40;102445.84;4841206;29;20136;-78
2022/08/31 05:59:15;;;;;;;4.45;1.80;;;;;;;23.24;41.35;102444.84;4838149;29;20072;-77
2022/08/31 06:01:41;;;;;;;3.00;1.50;;;;;;;23.35;40.85;102449.09;4816898;29;20522;-77
2022/08/31 06:04:07;;;;;;;3.88;1.85;;;;;;;23.49;40.08;102445.47;4835880;29;20176;-76
2022/08/31 06:06:34;;;;;;;6.03;2.10;;;;;;;23.65;39.67;102444.47;4871348;29;20129;-76
2022/08/31 06:08:59;;;;;;;5.63;2.20;;;;;;;23.78;38.94;102447.88;4856299;29;20065;-76
2022/08/31 06:11:28;;;;;;;4.80;2.10;;;;;;;23.95;38.57;102447.69;4834834;29;20049;-77
2022/08/31 06:13:56;;;;;;;5.22;2.22;;;;;;;24.08;37.59;102444.03;4855574;29;20054;-78
2022/08/31 06:16:22;;;;;;;6.40;2.00;;;;;;;24.17;37.92;102450.94;4872734;29;20058;-78
2022/08/31 06:18:49;;;;;;;6.82;2.30;;;;;;;24.56;36.60;102449.63;4833155;29;20053;-78
2022/08/31 06:21:26;;;;;;;5.47;2.15;;;;;;;24.99;36.05;102446.34;4841503;29;20385;-78
2022/08/31 06:23:56;;;;;;;6.68;2.13;;;;;;;26.74;32.06;102442.25;4855195;29;20068;-78
2022/08/31 06:26:24;;;;;;;4.90;2.10;;;;;;;28.09;29.77;102446.75;4819957;29;20112;-78
2022/08/31 06:28:52;;;;;;;3.92;2.25;;;;;;;28.62;28.86;102439.94;4854855;29;20053;-77
2022/08/31 06:31:36;;;;;;;6.20;2.00;;;;;;;29.10;28.61;102434.84;4866233;29;20049;-78
2022/08/31 06:34:03;;;;;;;3.90;2.00;;;;;;;28.90;28.99;102432.81;4855781;29;20061;-78
2022/08/31 06:36:30;;;;;;;5.43;2.08;;;;;;;29.05;28.64;102439.41;4857005;29;20053;-78
2022/08/31 06:39:00;;;;;;;5.13;2.30;;;;;;;29.31;27.95;102437.69;4870188;29;20058;-78
2022/08/31 06:41:37;;;;;;;4.93;1.73;;;;;;;29.60;27.46;102438.47;4872263;29;20054;-78
2022/08/31 06:44:08;;;;;;;4.38;1.70;;;;;;;29.36;28.27;102434.91;4855195;29;20066;-77
2022/08/31 06:46:36;;;;;;;4.25;1.60;;;;;;;28.33;29.93;102446.94;4834037;29;20519;-78
2022/08/31 06:49:03;;;;;;;4.20;1.70;;;;;;;26.68;32.75;102452.94;4816137;29;1169810;-77
2022/08/31 06:51:35;;;;;;;4.85;1.63;;;;;;;26.42;33.23;102458.75;4872313;29;20061;-78
2022/08/31 06:54:01;;;;;;;7.53;1.77;;;;;;;26.03;33.89;102456.91;4832319;29;20496;-78
2022/08/31 06:56:29;;;;;;;5.38;1.65;;;;;;;25.23;35.69;102457.44;4841731;29;20329;-78
2022/08/31 06:58:54;;;;;;;2.72;1.30;;;;;;;24.87;36.73;102461.47;4869691;29;20082;-78
2022/08/31 07:01:27;;;;;;;2.22;1.20;;;;;;;24.97;36.53;102458.66;4843253;29;20053;-78
2022/08/31 07:03:54;;;;;;;4.18;1.58;;;;;;;25.48;35.46;102459.63;4873594;29;20045;-78
2022/08/31 07:06:23;;;;;;;2.67;1.40;;;;;;;25.60;35.42;102472.63;4860643;29;20068;-78
2022/08/31 07:08:53;;;;;;;3.10;1.25;;;;;;;25.77;35.00;102464.41;4856688;29;20045;-79
2022/08/31 07:11:25;;;;;;;3.72;1.40;;;;;;;25.53;35.87;102460.44;4857827;29;20145;-78
2022/08/31 07:13:52;;;;;;;3.85;1.50;;;;;;;25.24;36.27;102469.72;4858595;29;20054;-79
2022/08/31 07:16:19;;;;;;;3.63;1.63;;;;;;;25.27;35.91;102469.66;4823310;29;20053;-76
2022/08/31 07:18:46;;;;;;;3.53;1.27;;;;;;;25.19;36.12;102468.88;4876084;29;20049;-77
2022/08/31 07:21:15;;;;;;;2.60;1.35;;;;;;;25.14;36.74;102468.94;4862126;29;20121;-76
2022/08/31 07:23:42;;;;;;;4.28;1.30;;;;;;;25.05;36.05;102477.88;4865525;29;20053;-77
2022/08/31 07:26:10;;;;;;;2.88;1.02;;;;;;;25.17;35.85;102474.19;4844357;29;20061;-77
2022/08/31 07:28:37;;;;;;;2.65;1.20;;;;;;;25.26;35.80;102475.84;4864122;29;20415;-77
2022/08/31 07:31:04;;;;;;;2.78;1.40;;;;;;;25.24;35.68;102477.63;4839607;29;20057;-77
2022/08/31 07:33:37;;;;;;;2.25;1.33;;;;;;;25.38;35.65;102472.97;4874528;29;20470;-77
2022/08/31 07:36:13;;;;;;;4.25;1.25;;;;;;;25.52;34.96;102471.88;4875814;29;20061;-78
2022/08/31 07:43:58;;;;;;;2.47;1.20;;;;;;;25.70;34.67;102468.94;4858275;29;20074;-77
2022/08/31 07:46:28;;;;;;;3.72;1.27;;;;;;;25.72;34.71;102471.50;4838731;29;20062;-77
2022/08/31 07:48:55;;;;;;;1.90;1.20;;;;;;;25.71;35.01;102475.06;4859225;29;20049;-78
2022/08/31 07:51:22;;;;;;;4.05;1.20;;;;;;;25.63;35.37;102484.00;4845279;29;20066;-77
2022/08/31 07:53:48;;;;;;;2.58;1.38;;;;;;;25.81;34.81;102479.28;4836877;29;20049;-77
2022/08/31 07:56:16;;;;;;;2.92;1.25;;;;;;;25.83;35.05;102485.41;4835729;29;20110;-78
2022/08/31 07:58:41;;;;;;;7.43;1.30;;;;;;;25.78;34.87;102482.84;4860018;29;20436;-78
2022/08/31 08:01:07;;;;;;;7.55;1.38;;;;;;;25.78;34.48;102481.97;4851975;29;20129;-77
2022/08/31 08:03:32;;;;;;;4.63;1.10;;;;;;;26.03;33.66;102479.78;4861453;29;20053;-77
2022/08/31 08:05:58;;;;;;;2.40;1.20;;;;;;;25.93;33.92;102478.22;4835930;29;20069;-77
2022/08/31 08:08:23;;;;;;;2.85;1.05;;;;;;;25.63;34.90;102481.34;4837693;29;20050;-77
2022/08/31 08:10:49;;;;;;;2.10;1.20;;;;;;;25.60;34.30;102486.66;4835839;29;20057;-78
2022/08/31 08:13:18;;;;;;;1.88;0.85;;;;;;;25.69;33.93;102476.84;4837736;29;20468;-78
2022/08/31 08:15:44;;;;;;;2.67;1.10;;;;;;;25.60;34.28;102480.53;4839545;29;20053;-77
2022/08/31 08:18:12;;;;;;;2.75;1.10;;;;;;;25.57;33.71;102481.47;4867253;29;20061;-78
2022/08/31 08:20:38;;;;;;;4.63;1.20;;;;;;;25.45;34.23;102477.25;4844138;29;20057;-77
2022/08/31 08:23:13;;;;;;;2.85;0.93;;;;;;;25.30;34.36;102479.28;4865147;29;20068;-77
2022/08/31 08:25:38;;;;;;;2.95;1.15;;;;;;;25.33;34.10;102477.47;4866831;29;20045;-77
2022/08/31 08:28:03;;;;;;;4.97;1.25;;;;;;;24.99;34.71;102483.22;4849977;29;20094;-79
2022/08/31 08:30:29;;;;;;;4.35;1.10;;;;;;;24.94;34.91;102482.44;4867093;29;20574;-77
2022/08/31 08:33:02;;;;;;;1.95;1.00;;;;;;;24.85;35.15;102487.84;4841641;29;20057;-77
2022/08/31 08:35:29;;;;;;;2.22;1.17;;;;;;;24.61;35.98;102495.16;4849459;29;20064;-78
2022/08/31 08:37:56;;;;;;;2.90;1.30;;;;;;;24.43;36.53;102485.72;4878271;29;20522;-77
2022/08/31 08:43:07;;;;;;;3.08;1.35;;;;;;;24.34;36.30;102495.47;4863967;29;21189;-77
2022/08/31 08:45:34;;;;;;;4.70;1.50;;;;;;;24.19;36.81;102494.78;4860041;29;20053;-77
2022/08/31 08:48:00;;;;;;;5.07;1.27;;;;;;;24.14;37.15;102496.56;4857750;29;20136;-77
2022/08/31 08:50:28;;;;;;;3.38;1.33;;;;;;;24.32;36.26;102491.97;4846068;29;20057;-79
2022/08/31 08:52:57;;;;;;;4.32;1.23;;;;;;;24.14;36.66;102487.81;4856233;29;20049;-79
2022/08/31 08:55:34;;;;;;;5.32;1.38;;;;;;;24.01;36.74;102487.06;4871133;29;20049;-77
2022/08/31 08:57:59;;;;;;;5.55;1.60;;;;;;;23.98;36.93;102487.97;4869501;29;20049;-77
2022/08/31 09:00:27;;;;;;;4.28;1.50;;;;;;;23.99;37.01;102484.44;4843872;29;20514;-77
2022/08/31 09:03:06;;;;;;;4.07;1.13;;;;;;;24.05;36.67;102486.16;4863828;29;20511;-77
2022/08/31 09:08:34;;;;;;;4.68;1.23;;;;;;;23.81;37.08;102476.75;4860300;29;20053;-78
2022/08/31 09:11:06;;;;;;;3.95;1.30;;;;;;;23.77;37.27;102481.16;4864119;29;20060;-78
2022/08/31 09:19:17;;;;;;;6.55;1.33;;;;;;;23.64;37.67;102490.00;4862758;29;20069;-79
2022/08/31 09:21:53;;;;;;;1.77;1.10;;;;;;;23.58;37.76;102483.06;4862837;29;20054;-78
2022/08/31 09:24:26;;;;;;;4.22;1.27;;;;;;;23.55;37.75;102492.72;4862106;29;20136;-78
2022/08/31 09:26:54;;;;;;;5.57;1.50;;;;;;;23.50;37.56;102494.53;4861652;29;20053;-78
2022/08/31 09:29:27;;;;;;;3.90;1.40;;;;;;;23.48;37.53;102491.06;4864625;29;20046;-78
2022/08/31 09:32:02;;;;;;;4.43;1.30;;;;;;;23.38;37.98;102485.84;4870267;29;20068;-78
2022/08/31 09:34:31;;;;;;;3.05;1.40;;;;;;;23.33;38.04;102489.41;4887819;29;20090;-78
2022/08/31 09:37:19;;;;;;;4.68;1.40;;;;;;;23.33;38.00;102482.38;4867466;29;20053;-78
2022/08/31 09:39:47;;;;;;;3.30;1.42;;;;;;;23.27;38.23;102484.19;4871019;29;20495;-77
2022/08/31 09:42:30;;;;;;;5.43;1.48;;;;;;;23.30;38.28;102478.91;4868424;29;20134;-77
2022/08/31 09:45:28;;;;;;;3.08;1.23;;;;;;;22.96;40.18;102492.25;4865881;29;20057;-78
2022/08/31 09:47:59;;;;;;;8.27;1.60;;;;;;;22.48;40.57;102489.84;4845061;29;20054;-77
2022/08/31 09:56:15;;;;;;;6.55;1.80;;;;;;;22.31;39.86;102486.41;4862974;29;21242;-78
2022/08/31 09:58:52;;;;;;;13.68;2.17;;;;;;;22.30;40.30;102490.81;4863014;29;20141;-78
2022/08/31 10:01:18;;;;;;;10.15;1.65;;;;;;;22.24;40.20;102490.81;4868046;29;20056;-78
2022/08/31 10:03:45;;;;;;;5.88;1.48;;;;;;;22.09;40.88;102488.22;4867323;29;20076;-79
2022/08/31 10:09:13;;;;;;;7.50;1.73;;;;;;;22.13;40.24;102493.44;4864886;29;20182;-78
2022/08/31 10:17:28;;;;;;;3.53;1.40;;;;;;;22.03;39.54;102486.47;4865227;29;20076;-77
2022/08/31 10:20:04;;;;;;;4.00;1.35;;;;;;;22.12;39.49;102488.19;4866026;29;20042;-77
2022/08/31 10:25:16;;;;;;;4.55;1.13;;;;;;;21.98;39.11;102488.22;4864468;29;20094;-78
2022/08/31 10:27:48;;;;;;;5.43;1.27;;;;;;;21.84;38.88;102485.63;4864882;29;20567;-77
2022/08/31 10:30:23;;;;;;;2.83;1.20;;;;;;;22.07;38.07;102484.72;4865209;29;20054;-77
2022/08/31 10:32:58;;;;;;;2.83;1.10;;;;;;;22.30;37.80;102477.69;4864376;29;20057;-78
2022/08/31 10:35:41;;;;;;;6.78;1.20;;;;;;;22.46;36.99;102478.50;4865878;29;20128;-77
2022/08/31 10:38:20;;;;;;;4.82;1.20;;;;;;;22.51;37.04;102476.72;4867658;29;20122;-78
2022/08/31 10:41:10;;;;;;;3.22;1.10;;;;;;;22.62;36.95;102467.94;4865000;29;20053;-77
2022/08/31 10:43:43;;;;;;;8.40;1.30;;;;;;;22.60;36.59;102465.31;4865027;29;20058;-77
2022/08/31 10:46:09;;;;;;;3.38;1.10;;;;;;;22.62;37.07;102458.31;4867155;29;20057;-77
2022/08/31 10:48:36;;;;;;;3.13;1.13;;;;;;;22.67;36.58;102456.53;4878742;29;20115;-78
2022/08/31 10:51:08;;;;;;;6.20;1.10;;;;;;;22.62;36.58;102462.69;4878161;29;20515;-79
2022/08/31 10:56:40;;;;;;;4.22;1.10;;;;;;;22.62;36.84;102463.53;4866504;29;20054;-77
2022/08/31 10:59:30;;;;;;;4.35;1.10;;;;;;;22.64;36.47;102468.78;4864372;29;20053;-77
2022/08/31 11:01:55;;;;;;;3.75;0.95;;;;;;;22.61;36.22;102459.19;4864375;29;20125;-78
2022/08/31 11:04:41;;;;;;;6.00;1.10;;;;;;;22.62;36.50;102463.53;4825095;29;1183929;-78
2022/08/31 11:07:23;;;;;;;2.50;1.02;;;;;;;22.67;36.83;102458.28;4853917;29;20100;-78
2022/08/31 11:10:11;;;;;;;3.58;1.10;;;;;;;22.69;36.73;102460.03;4863503;29;20105;-79
2022/08/31 11:15:40;;;;;;;6.03;1.45;;;;;;;22.71;36.62;102466.16;4865371;29;20065;-78
2022/08/31 11:18:26;;;;;;;3.67;1.15;;;;;;;22.67;36.15;102459.16;4864084;29;20564;-79
2022/08/31 11:21:25;;;;;;;3.70;1.20;;;;;;;22.68;36.34;102460.03;4862520;29;20448;-78
2022/08/31 11:24:16;;;;;;;5.68;1.10;;;;;;;22.70;36.39;102456.50;4864626;29;20045;-78
2022/08/31 11:27:03;;;;;;;3.33;1.17;;;;;;;22.74;36.26;102462.63;4868423;29;20049;-79
2022/08/31 11:29:34;;;;;;;3.13;1.00;;;;;;;22.72;36.33;102456.53;4866278;29;20060;-78
2022/08/31 11:32:16;;;;;;;2.22;1.05;;;;;;;22.71;36.26;102453.03;4867019;29;20054;-78
2022/08/31 11:34:50;;;;;;;5.63;1.25;;;;;;;22.71;36.54;102466.16;4866431;29;20050;-78
2022/08/31 11:40:10;;;;;;;2.78;1.20;;;;;;;22.70;37.08;102450.41;4867397;29;20975;-79
2022/08/31 11:42:38;;;;;;;4.50;1.10;;;;;;;22.69;36.94;102457.41;4859420;29;20053;-79
2022/08/31 11:45:36;;;;;;;7.13;1.20;;;;;;;22.70;36.76;102451.28;4862336;29;20056;-77
2022/08/31 11:48:10;;;;;;;4.22;1.20;;;;;;;22.73;36.82;102453.00;4866053;29;20113;-78
2022/08/31 11:53:33;;;;;;;5.32;1.67;;;;;;;22.72;37.38;102449.50;4867874;29;21214;-79
2022/08/31 11:56:05;;;;;;;3.80;1.30;;;;;;;22.77;36.95;102447.72;4867071;29;20046;-79
2022/08/31 11:58:33;;;;;;;3.95;1.00;;;;;;;22.74;36.78;102444.25;4870566;29;20061;-79
2022/08/31 12:29:44;;;;;;;4.60;1.23;;;;;;;22.78;37.16;102401.38;5284439;23;20057;-81
2022/08/31 12:32:19;;;;;;;2.58;1.17;;;;;;;22.82;36.70;102403.09;4898741;29;20056;-85
2022/08/31 12:34:55;;;;;;;2.97;1.30;;;;;;;22.77;36.53;102404.88;4882818;29;20039;-83
2022/08/31 14:46:08;;;;;;;1.48;0.80;;;;;;;23.18;35.99;102320.53;5953426;23;20028;31
2022/08/31 16:06:59;;;;;;;1.30;0.70;;;;;;;23.23;36.51;102296.00;5564768;23;20028;31
2022/08/31 16:09:26;;;;;;;2.17;1.02;;;;;;;23.22;35.78;102292.50;4884308;29;20064;-81
2022/08/31 16:11:51;;;;;;;1.88;0.70;;;;;;;23.22;35.85;102294.28;4867803;29;20081;-80
2022/08/31 18:18:37;;;;;;;2.40;1.00;;;;;;;22.74;39.96;102308.66;4871943;23;20236;-84
2022/08/31 18:21:06;;;;;;;4.43;0.98;;;;;;;22.73;40.33;102316.53;4857457;29;20496;-83
2022/08/31 18:23:33;;;;;;;2.90;0.90;;;;;;;22.73;40.13;102320.06;4863340;29;20419;-87
2022/08/31 18:25:58;;;;;;;3.53;1.00;;;;;;;22.74;39.92;102318.28;4875907;29;20053;-81
2022/08/31 18:28:24;;;;;;;1.77;0.82;;;;;;;22.72;39.92;102325.31;4877468;29;20061;-85
2022/08/31 18:30:50;;;;;;;1.90;0.70;;;;;;;22.74;39.93;102320.91;4861922;29;20053;-85
2022/08/31 18:33:17;;;;;;;1.27;0.80;;;;;;;22.74;40.09;102321.78;4878446;29;20108;-85
2022/08/31 18:35:49;;;;;;;1.55;0.85;;;;;;;22.76;39.98;102329.66;4877754;29;20045;-84